Time;durP1;ratioP1;P1;durP2;ratioP2;P2;SDS_P1;SDS_P2;PMS_P1;PMS_P2;Temp;Humidity;BMP_temperature;BMP_pressure;BME280_temperature;BME280_humidity;BME280_pressure;Samples;Min_cycle;Max_cycle;Signal;HPM_P1;HPM_P2
2021/04/28 00:01:55;;;;;;;14.10;8.40;;;7.00;54.20;;;;;;4983302;28;20455;-60
2021/04/28 00:04:21;;;;;;;15.23;8.87;;;7.00;54.60;;;;;;4980753;28;20428;-61
2021/04/28 00:06:47;;;;;;;16.37;8.70;;;7.00;55.00;;;;;;4976443;28;20954;-59
2021/04/28 00:09:13;;;;;;;14.30;8.30;;;6.90;55.10;;;;;;4979589;28;20560;-58
2021/04/28 00:11:39;;;;;;;16.13;9.03;;;6.90;55.30;;;;;;4983066;28;20643;-60
2021/04/28 00:14:06;;;;;;;12.23;7.83;;;6.80;55.70;;;;;;4982526;28;20686;-60
2021/04/28 00:16:32;;;;;;;17.87;8.60;;;6.80;55.80;;;;;;4981195;28;20421;-59
2021/04/28 00:18:58;;;;;;;13.87;8.47;;;6.80;56.10;;;;;;4983218;28;20428;-58
2021/04/28 00:21:24;;;;;;;17.60;8.33;;;6.70;55.90;;;;;;4981182;28;20774;-59
2021/04/28 00:23:50;;;;;;;16.33;8.90;;;6.70;56.20;;;;;;4978625;28;21122;-58
2021/04/28 00:26:16;;;;;;;10.80;7.90;;;6.70;56.10;;;;;;4982385;28;20260;-60
2021/04/28 00:28:45;;;;;;;13.13;8.03;;;6.70;56.40;;;;;;4980580;28;20471;-60
2021/04/28 00:31:11;;;;;;;20.37;8.90;;;6.60;56.50;;;;;;4997256;28;20486;-60
2021/04/28 00:33:37;;;;;;;11.07;7.47;;;6.60;56.50;;;;;;4981025;28;20468;-60
2021/04/28 00:36:03;;;;;;;15.33;8.53;;;6.50;56.70;;;;;;4980326;28;20515;-60
2021/04/28 00:38:29;;;;;;;12.50;7.97;;;6.50;57.10;;;;;;4970988;28;20898;-60
2021/04/28 00:40:55;;;;;;;15.80;7.97;;;6.50;57.60;;;;;;4982801;28;20425;-59
2021/04/28 00:43:22;;;;;;;24.23;8.27;;;6.40;57.50;;;;;;4978232;28;20206;-60
2021/04/28 00:45:48;;;;;;;13.57;8.03;;;6.40;57.60;;;;;;4983667;28;20812;-58
2021/04/28 00:48:14;;;;;;;20.23;9.03;;;6.40;57.50;;;;;;4986190;28;20466;-60
2021/04/28 00:50:43;;;;;;;11.53;7.80;;;6.40;57.70;;;;;;4978927;28;21112;-60
2021/04/28 00:53:14;;;;;;;17.80;8.03;;;6.40;57.90;;;;;;4979921;28;20887;-59
2021/04/28 00:55:40;;;;;;;13.23;8.30;;;6.30;58.40;;;;;;4978711;28;20802;-60
2021/04/28 00:58:06;;;;;;;11.80;8.20;;;6.30;58.70;;;;;;4981139;28;20487;-60
2021/04/28 01:00:33;;;;;;;13.13;7.50;;;6.30;58.90;;;;;;4981355;28;20177;-61
2021/04/28 01:02:59;;;;;;;11.13;8.73;;;6.30;58.50;;;;;;4980804;28;20529;-59
2021/04/28 01:05:25;;;;;;;12.77;8.23;;;6.30;58.80;;;;;;4978339;28;20440;-61
2021/04/28 01:07:52;;;;;;;9.83;7.70;;;6.20;58.90;;;;;;5000615;28;20460;-61
2021/04/28 01:10:20;;;;;;;17.53;8.10;;;6.10;59.00;;;;;;5000861;28;20442;-61
2021/04/28 01:12:46;;;;;;;13.00;8.07;;;6.10;59.30;;;;;;4998864;28;20551;-62
2021/04/28 01:15:17;;;;;;;11.00;8.00;;;6.00;59.70;;;;;;4979723;28;20507;-61
2021/04/28 01:17:44;;;;;;;14.60;8.13;;;6.00;60.10;;;;;;4979559;28;20212;-60
2021/04/28 01:20:13;;;;;;;11.77;7.57;;;5.90;61.20;;;;;;4979978;28;20428;-62
2021/04/28 01:22:46;;;;;;;12.90;8.30;;;5.90;61.60;;;;;;4981997;28;20528;-61
2021/04/28 01:25:16;;;;;;;14.80;8.07;;;5.90;61.90;;;;;;4977073;28;20503;-60
2021/04/28 01:27:46;;;;;;;14.00;8.23;;;5.80;62.10;;;;;;4979921;28;20483;-61
2021/04/28 01:30:14;;;;;;;16.73;8.20;;;5.80;62.40;;;;;;4996888;28;20518;-61
2021/04/28 01:32:45;;;;;;;14.00;7.80;;;5.80;62.60;;;;;;4983942;28;20515;-61
2021/04/28 01:35:16;;;;;;;13.13;8.30;;;5.80;63.00;;;;;;4973028;28;20429;-61
2021/04/28 01:37:43;;;;;;;13.23;8.50;;;5.80;63.30;;;;;;4977799;28;20494;-62
2021/04/28 01:40:11;;;;;;;15.10;9.20;;;5.70;63.50;;;;;;4976245;28;20447;-62
2021/04/28 01:42:36;;;;;;;11.90;8.53;;;5.70;64.50;;;;;;4982439;28;21019;-62
2021/04/28 01:45:03;;;;;;;15.90;8.60;;;5.70;64.00;;;;;;4980719;28;20507;-61
2021/04/28 01:47:29;;;;;;;12.13;7.33;;;5.60;63.80;;;;;;4979384;28;20686;-61
2021/04/28 01:49:56;;;;;;;11.77;7.93;;;5.60;64.40;;;;;;4978890;28;20878;-61
2021/04/28 01:52:22;;;;;;;16.90;8.30;;;5.60;64.60;;;;;;4981718;28;20464;-61
2021/04/28 01:54:48;;;;;;;17.33;8.23;;;5.50;65.10;;;;;;4978601;28;20428;-60
2021/04/28 01:57:15;;;;;;;12.83;8.30;;;5.50;65.70;;;;;;4982591;28;20244;-61
2021/04/28 01:59:42;;;;;;;13.87;8.63;;;5.40;65.70;;;;;;4983730;28;20884;-61
2021/04/28 02:02:09;;;;;;;14.97;8.07;;;5.40;66.80;;;;;;4980496;28;20522;-60
2021/04/28 02:04:37;;;;;;;13.93;8.57;;;5.40;67.20;;;;;;4978255;28;20459;-61
2021/04/28 02:07:03;;;;;;;14.80;8.40;;;5.30;67.30;;;;;;4978162;28;20469;-60
2021/04/28 02:09:30;;;;;;;12.10;8.77;;;5.30;68.20;;;;;;4982547;28;20839;-61
2021/04/28 02:11:57;;;;;;;15.57;8.40;;;5.30;68.80;;;;;;4982924;28;20439;-61
2021/04/28 02:14:24;;;;;;;16.37;9.50;;;5.20;69.30;;;;;;4994383;28;20435;-61
2021/04/28 02:16:50;;;;;;;13.83;8.93;;;5.20;70.20;;;;;;4988772;28;20449;-61
2021/04/28 02:19:17;;;;;;;12.73;9.27;;;5.20;70.40;;;;;;4982941;28;20436;-66
2021/04/28 02:21:51;;;;;;;12.50;8.70;;;5.30;70.50;;;;;;4982448;28;20870;-60
2021/04/28 02:24:17;;;;;;;14.57;9.07;;;5.20;70.40;;;;;;4997028;28;20436;-61
2021/04/28 02:26:44;;;;;;;15.13;8.80;;;5.20;70.60;;;;;;4984780;28;20436;-59
2021/04/28 02:29:10;;;;;;;11.00;8.17;;;5.20;70.80;;;;;;4983169;28;20443;-63
2021/04/28 02:31:37;;;;;;;13.37;8.60;;;5.20;71.90;;;;;;4988002;28;20507;-62
2021/04/28 02:34:04;;;;;;;16.03;9.07;;;5.20;72.20;;;;;;4986177;28;20464;-61
2021/04/28 02:36:33;;;;;;;23.87;9.13;;;5.20;72.20;;;;;;4980041;28;20475;-61
2021/04/28 02:39:54;;;;;;;13.50;8.20;;;5.10;72.10;;;;;;4970939;28;21228;-61
2021/04/28 02:42:22;;;;;;;19.17;8.93;;;5.10;72.40;;;;;;4920535;29;20699;-61
2021/04/28 02:44:48;;;;;;;14.33;9.23;;;5.00;72.40;;;;;;4969357;28;20455;-60
2021/04/28 02:47:15;;;;;;;14.73;9.30;;;5.00;73.00;;;;;;4981942;28;20459;-62
2021/04/28 02:49:41;;;;;;;16.33;8.50;;;5.00;73.10;;;;;;4985189;28;20444;-62
2021/04/28 02:52:08;;;;;;;19.00;9.67;;;5.00;73.20;;;;;;4983463;28;20467;-60
2021/04/28 02:54:37;;;;;;;13.67;8.40;;;5.00;74.10;;;;;;4978715;28;20463;-62
2021/04/28 02:57:03;;;;;;;13.00;8.70;;;5.00;73.40;;;;;;4982155;28;20460;-62
2021/04/28 02:59:29;;;;;;;12.53;8.40;;;4.90;73.70;;;;;;4983282;28;21492;-62
2021/04/28 03:01:55;;;;;;;13.07;8.70;;;4.90;74.60;;;;;;4979839;28;20440;-62
2021/04/28 03:04:24;;;;;;;16.80;8.63;;;4.80;75.10;;;;;;4978424;28;20773;-61
2021/04/28 03:06:50;;;;;;;19.23;7.60;;;4.80;75.70;;;;;;4980384;28;20984;-61
2021/04/28 03:09:16;;;;;;;19.10;8.67;;;4.80;76.10;;;;;;4985311;28;20491;-62
2021/04/28 03:11:43;;;;;;;13.17;9.40;;;4.80;76.30;;;;;;4985094;28;20181;-62
2021/04/28 03:14:10;;;;;;;19.27;8.70;;;4.80;76.50;;;;;;4986037;28;20430;-61
2021/04/28 03:16:36;;;;;;;18.70;9.30;;;4.80;76.20;;;;;;4980770;28;20487;-61
2021/04/28 03:19:04;;;;;;;13.80;8.77;;;4.80;76.00;;;;;;4984094;28;20428;-61
2021/04/28 03:21:34;;;;;;;16.73;9.67;;;4.70;76.60;;;;;;4996383;28;20571;-61
2021/04/28 03:24:01;;;;;;;15.30;9.37;;;4.70;77.10;;;;;;4976133;28;20427;-61
2021/04/28 03:26:28;;;;;;;15.97;9.00;;;4.70;77.40;;;;;;4982848;28;20424;-60
2021/04/28 03:28:55;;;;;;;17.73;9.77;;;4.60;77.60;;;;;;4981488;28;20432;-61
2021/04/28 03:31:21;;;;;;;11.70;8.73;;;4.60;77.70;;;;;;4982388;28;20468;-60
2021/04/28 03:33:47;;;;;;;15.33;10.13;;;4.60;77.60;;;;;;4982340;28;20491;-61
2021/04/28 03:36:15;;;;;;;13.73;8.50;;;4.60;77.60;;;;;;4980647;28;20205;-60
2021/04/28 03:38:40;;;;;;;12.60;8.50;;;4.60;77.40;;;;;;4979910;28;20449;-62
2021/04/28 03:41:06;;;;;;;19.53;9.10;;;4.50;77.60;;;;;;4980332;28;20435;-61
2021/04/28 03:43:32;;;;;;;14.87;9.00;;;4.50;78.80;;;;;;4980310;28;20184;-61
2021/04/28 03:45:58;;;;;;;13.20;8.93;;;4.50;79.10;;;;;;4982028;28;20218;-61
2021/04/28 03:48:23;;;;;;;12.13;8.97;;;4.50;79.30;;;;;;4980194;28;20201;-60
2021/04/28 03:50:49;;;;;;;17.43;9.47;;;4.40;79.20;;;;;;4985460;28;20165;-61
2021/04/28 03:53:15;;;;;;;19.40;9.73;;;4.40;79.30;;;;;;4983418;28;20349;-61
2021/04/28 03:55:40;;;;;;;12.57;9.23;;;4.40;79.70;;;;;;4983054;28;20176;-61
2021/04/28 03:58:06;;;;;;;16.83;8.27;;;4.40;80.00;;;;;;4980000;28;20216;-62
2021/04/28 04:00:32;;;;;;;14.23;8.80;;;4.40;80.20;;;;;;4979863;28;20515;-61
2021/04/28 04:02:58;;;;;;;16.00;9.30;;;4.30;80.30;;;;;;4981027;28;20249;-61
2021/04/28 04:05:24;;;;;;;19.47;9.67;;;4.30;80.20;;;;;;4981024;28;20654;-61
2021/04/28 04:07:50;;;;;;;14.00;9.30;;;4.30;81.00;;;;;;4981960;28;20958;-60
2021/04/28 04:10:16;;;;;;;14.40;9.30;;;4.30;80.60;;;;;;4975780;28;22174;-61
2021/04/28 04:12:42;;;;;;;14.13;8.70;;;4.30;81.00;;;;;;4981394;28;20475;-61
2021/04/28 04:15:08;;;;;;;16.40;9.40;;;4.30;80.60;;;;;;4984469;28;20197;-60
2021/04/28 04:17:34;;;;;;;20.03;9.80;;;4.30;80.80;;;;;;4986225;28;20218;-61
2021/04/28 04:20:00;;;;;;;17.97;9.20;;;4.20;81.00;;;;;;4981282;28;20431;-61
2021/04/28 04:22:26;;;;;;;15.80;9.30;;;4.20;81.30;;;;;;4982417;28;20773;-61
2021/04/28 04:24:52;;;;;;;14.67;8.90;;;4.20;81.90;;;;;;4980595;28;20933;-60
2021/04/28 04:27:18;;;;;;;19.33;9.77;;;4.20;82.00;;;;;;4982330;28;20221;-64
2021/04/28 04:29:44;;;;;;;17.37;10.07;;;4.20;82.70;;;;;;4980667;28;20264;-60
2021/04/28 04:32:10;;;;;;;16.90;10.93;;;4.20;82.90;;;;;;4982942;28;21069;-61
2021/04/28 04:34:35;;;;;;;17.00;10.30;;;4.20;83.00;;;;;;4981642;28;20432;-60
2021/04/28 04:37:02;;;;;;;20.40;10.23;;;4.30;83.20;;;;;;4972854;28;20694;-61
2021/04/28 04:39:28;;;;;;;17.60;10.17;;;4.30;83.10;;;;;;4974209;28;20173;-61
2021/04/28 04:41:53;;;;;;;20.23;9.70;;;4.30;83.50;;;;;;4978081;28;20816;-61
2021/04/28 04:44:19;;;;;;;12.73;9.00;;;4.30;83.30;;;;;;4980044;28;20256;-61
2021/04/28 04:46:45;;;;;;;13.00;8.60;;;4.40;83.30;;;;;;4979209;28;20181;-61
2021/04/28 04:49:10;;;;;;;14.20;9.17;;;4.40;83.20;;;;;;4979202;28;20181;-54
2021/04/28 04:51:36;;;;;;;20.57;9.80;;;4.40;83.20;;;;;;4980892;28;20311;-61
2021/04/28 04:54:02;;;;;;;16.77;9.63;;;4.40;83.50;;;;;;4973207;28;20467;-61
2021/04/28 04:56:28;;;;;;;16.63;9.77;;;4.50;83.30;;;;;;4987206;28;20216;-62
2021/04/28 04:58:53;;;;;;;19.63;9.60;;;4.50;83.00;;;;;;4971431;28;20227;-61
2021/04/28 05:01:19;;;;;;;19.37;11.10;;;4.50;83.40;;;;;;4979427;28;20188;-62
2021/04/28 05:03:45;;;;;;;18.80;10.03;;;4.50;84.20;;;;;;4984711;28;20574;-62
2021/04/28 05:06:11;;;;;;;15.90;10.00;;;4.50;83.60;;;;;;4978119;28;20626;-63
2021/04/28 05:08:36;;;;;;;16.93;10.67;;;4.60;84.00;;;;;;4978393;28;20208;-61
2021/04/28 05:11:02;;;;;;;21.07;10.20;;;4.60;83.10;;;;;;4978411;28;20436;-63
2021/04/28 05:13:28;;;;;;;17.77;10.13;;;4.70;84.00;;;;;;4982103;28;20206;-62
2021/04/28 05:15:54;;;;;;;17.63;10.90;;;4.70;83.60;;;;;;4976047;28;22716;-63
2021/04/28 05:18:19;;;;;;;15.50;9.60;;;4.80;83.30;;;;;;4976873;28;20290;-63
2021/04/28 05:20:45;;;;;;;16.53;10.63;;;4.80;83.10;;;;;;4978260;28;20181;-63
2021/04/28 05:23:11;;;;;;;16.10;10.17;;;4.90;83.40;;;;;;4978868;28;20220;-63
2021/04/28 05:25:36;;;;;;;19.00;10.67;;;4.90;82.50;;;;;;4984469;28;20189;-62
2021/04/28 05:28:02;;;;;;;19.93;10.47;;;4.90;83.40;;;;;;4984357;28;20567;-63
2021/04/28 05:30:28;;;;;;;28.70;10.40;;;4.90;84.20;;;;;;4981738;28;20189;-62
2021/04/28 05:32:54;;;;;;;19.33;10.23;;;5.00;83.60;;;;;;4978790;28;20936;-61
2021/04/28 05:35:19;;;;;;;20.37;10.20;;;5.00;84.50;;;;;;4978911;28;20219;-62
2021/04/28 05:37:48;;;;;;;15.47;10.47;;;5.00;82.50;;;;;;4975934;28;20282;-62
2021/04/28 05:40:14;;;;;;;19.10;10.50;;;5.10;84.00;;;;;;4981502;28;20448;-63
2021/04/28 05:42:40;;;;;;;16.43;10.60;;;5.20;84.10;;;;;;4980065;28;20543;-61
2021/04/28 05:45:09;;;;;;;16.50;10.07;;;5.20;83.80;;;;;;4978463;28;20432;-62
2021/04/28 05:47:35;;;;;;;23.87;10.23;;;5.30;83.70;;;;;;4975939;28;20471;-60
2021/04/28 05:50:03;;;;;;;33.93;11.33;;;5.40;84.00;;;;;;4989837;28;20455;-60
2021/04/28 05:52:28;;;;;;;27.10;12.23;;;5.50;83.20;;;;;;4988347;28;20482;-63
2021/04/28 05:54:54;;;;;;;20.77;11.20;;;5.50;83.00;;;;;;4993738;28;20440;-60
2021/04/28 05:57:22;;;;;;;23.23;10.90;;;5.60;83.20;;;;;;4987832;28;20262;-61
2021/04/28 05:59:47;;;;;;;18.97;10.37;;;5.70;82.60;;;;;;4987835;28;20186;-61
2021/04/28 06:02:13;;;;;;;24.93;10.90;;;5.70;83.40;;;;;;4989135;28;20466;-62
2021/04/28 06:04:39;;;;;;;14.13;10.20;;;5.80;83.60;;;;;;4990687;28;20212;-62
2021/04/28 06:07:05;;;;;;;21.00;10.60;;;5.80;83.80;;;;;;4985411;28;20201;-62
2021/04/28 06:09:31;;;;;;;19.07;10.20;;;5.90;84.70;;;;;;4984036;28;21025;-61
2021/04/28 06:11:56;;;;;;;16.07;10.10;;;5.90;83.90;;;;;;4985501;28;20754;-60
2021/04/28 06:14:22;;;;;;;19.13;10.60;;;6.00;82.60;;;;;;4993416;28;20177;-62
2021/04/28 06:16:48;;;;;;;26.30;16.77;;;6.00;82.10;;;;;;4979012;28;20185;-62
2021/04/28 06:19:15;;;;;;;30.43;12.43;;;6.00;83.00;;;;;;4975885;28;20271;-61
2021/04/28 06:21:40;;;;;;;19.07;11.80;;;6.00;84.20;;;;;;4983540;28;20432;-61
2021/04/28 06:24:10;;;;;;;21.47;11.60;;;6.00;85.30;;;;;;4990030;28;20443;-62
2021/04/28 06:26:38;;;;;;;16.83;10.80;;;6.00;84.80;;;;;;4979433;28;20624;-62
2021/04/28 06:29:04;;;;;;;18.87;11.20;;;6.10;83.80;;;;;;4983557;28;20475;-61
2021/04/28 06:31:32;;;;;;;24.17;12.43;;;6.20;83.90;;;;;;4979379;28;20483;-61
2021/04/28 06:33:58;;;;;;;15.00;10.87;;;6.20;84.20;;;;;;4984565;28;20212;-65
2021/04/28 06:36:23;;;;;;;17.27;10.83;;;6.20;83.70;;;;;;4976113;28;20429;-62
2021/04/28 06:38:49;;;;;;;17.30;12.27;;;6.30;84.30;;;;;;4980249;28;20201;-60
2021/04/28 06:41:15;;;;;;;15.97;10.50;;;6.30;84.80;;;;;;4980672;28;20178;-62
2021/04/28 06:43:41;;;;;;;24.80;10.70;;;6.30;83.80;;;;;;4981517;28;20440;-61
2021/04/28 06:46:07;;;;;;;20.30;10.67;;;6.30;83.20;;;;;;4972228;28;20189;-61
2021/04/28 06:48:33;;;;;;;18.30;11.53;;;6.40;83.40;;;;;;4976057;28;21374;-62
2021/04/28 06:50:59;;;;;;;17.33;11.77;;;6.40;82.70;;;;;;4976987;28;20457;-61
2021/04/28 06:53:25;;;;;;;18.67;11.20;;;6.50;83.20;;;;;;4977277;28;20968;-59
2021/04/28 06:55:50;;;;;;;26.53;11.90;;;6.50;83.40;;;;;;4978748;28;20431;-61
2021/04/28 06:58:16;;;;;;;16.73;12.00;;;6.60;83.20;;;;;;4983137;28;20280;-61
2021/04/28 07:00:42;;;;;;;16.53;11.37;;;6.60;81.80;;;;;;4982525;28;20269;-61
2021/04/28 07:03:08;;;;;;;18.40;12.27;;;6.60;82.60;;;;;;4984969;28;20195;-61
2021/04/28 07:05:34;;;;;;;20.93;12.50;;;6.70;83.30;;;;;;4979650;28;20817;-60
2021/04/28 07:07:59;;;;;;;15.67;11.23;;;6.70;82.80;;;;;;5039872;23;20262;-58
2021/04/28 07:10:26;;;;;;;21.03;12.10;;;6.80;82.80;;;;;;5017684;28;20186;-56
2021/04/28 07:12:52;;;;;;;17.03;10.67;;;6.80;83.10;;;;;;5019865;28;20673;-55
2021/04/28 07:15:18;;;;;;;21.50;11.20;;;6.90;82.50;;;;;;5018817;28;21021;-57
2021/04/28 07:17:48;;;;;;;17.13;11.43;;;6.90;81.90;;;;;;5020978;28;20477;-57
2021/04/28 07:20:14;;;;;;;18.03;11.60;;;6.90;82.70;;;;;;5012085;28;20695;-55
2021/04/28 07:22:41;;;;;;;21.40;12.60;;;7.00;81.50;;;;;;5023390;28;20512;-57
2021/04/28 07:25:07;;;;;;;16.90;12.00;;;7.00;81.80;;;;;;5020145;28;20472;-57
2021/04/28 07:27:33;;;;;;;23.60;12.00;;;7.00;82.00;;;;;;5023021;28;20474;-58
2021/04/28 07:29:58;;;;;;;21.30;12.53;;;7.10;81.00;;;;;;5015634;28;20456;-57
2021/04/28 07:32:24;;;;;;;28.83;12.63;;;7.10;80.40;;;;;;5019925;28;20192;-59
2021/04/28 07:34:50;;;;;;;25.00;12.87;;;7.20;81.20;;;;;;5026265;28;20180;-60
2021/04/28 07:37:16;;;;;;;24.57;12.57;;;7.20;78.50;;;;;;5010307;28;20278;-58
2021/04/28 07:39:42;;;;;;;42.37;13.70;;;7.30;78.90;;;;;;5018479;28;20420;-56
2021/04/28 07:42:08;;;;;;;25.13;12.37;;;7.40;77.80;;;;;;5016718;28;20431;-58
2021/04/28 07:44:34;;;;;;;37.33;13.93;;;7.50;78.60;;;;;;5019996;28;20449;-58
2021/04/28 07:47:01;;;;;;;21.20;12.63;;;7.60;78.20;;;;;;5031039;28;20227;-59
2021/04/28 07:49:27;;;;;;;30.60;12.90;;;7.80;77.50;;;;;;5028094;28;20183;-55
2021/04/28 07:51:53;;;;;;;28.10;12.83;;;8.00;78.70;;;;;;5015966;28;20505;-59
2021/04/28 07:54:20;;;;;;;21.83;13.53;;;8.20;76.60;;;;;;5026064;28;20516;-58
2021/04/28 07:56:46;;;;;;;28.70;12.53;;;8.40;75.20;;;;;;5024813;28;20530;-60
2021/04/28 07:59:13;;;;;;;28.50;13.70;;;8.60;72.50;;;;;;5025191;28;20997;-58
2021/04/28 08:01:39;;;;;;;20.13;12.33;;;8.70;71.30;;;;;;5024699;28;20502;-58
2021/04/28 08:04:05;;;;;;;24.63;12.40;;;8.80;69.60;;;;;;5027187;28;20493;-58
2021/04/28 08:06:31;;;;;;;29.43;14.43;;;9.00;69.70;;;;;;5028044;28;20484;-58
2021/04/28 08:08:57;;;;;;;27.10;13.27;;;9.20;70.90;;;;;;5028039;28;20723;-56
2021/04/28 08:11:22;;;;;;;30.17;15.73;;;9.40;70.50;;;;;;5031223;28;20171;-58
2021/04/28 08:13:48;;;;;;;23.77;13.80;;;9.60;68.10;;;;;;5026551;28;20664;-59
2021/04/28 08:16:15;;;;;;;25.20;13.73;;;9.80;64.90;;;;;;5025437;28;20800;-58
2021/04/28 08:18:41;;;;;;;26.93;15.07;;;9.90;65.50;;;;;;5022992;28;20167;-58
2021/04/28 08:21:07;;;;;;;27.20;14.17;;;10.10;65.50;;;;;;5026577;28;20875;-58
2021/04/28 08:23:32;;;;;;;22.17;14.10;;;10.40;64.60;;;;;;5023751;28;20502;-58
2021/04/28 08:26:02;;;;;;;24.23;13.60;;;10.70;63.60;;;;;;5039865;28;20444;-58
2021/04/28 08:28:28;;;;;;;21.50;13.50;;;10.80;60.70;;;;;;5024977;28;20642;-58
2021/04/28 08:30:54;;;;;;;23.70;14.57;;;11.00;60.00;;;;;;5025747;28;20934;-57
2021/04/28 08:33:20;;;;;;;35.80;14.30;;;11.10;58.70;;;;;;5033073;28;20450;-60
2021/04/28 08:35:45;;;;;;;29.13;14.87;;;11.00;57.90;;;;;;5006666;28;20700;-57
2021/04/28 08:38:11;;;;;;;31.30;14.10;;;11.00;58.20;;;;;;5008498;28;20327;-60
2021/04/28 08:40:38;;;;;;;33.83;13.50;;;11.10;59.80;;;;;;5025386;28;20255;-57
2021/04/28 08:43:04;;;;;;;34.70;13.80;;;11.20;59.70;;;;;;5028359;28;20946;-57
2021/04/28 08:45:30;;;;;;;19.87;13.00;;;11.20;61.30;;;;;;5019752;28;20438;-58
2021/04/28 08:47:57;;;;;;;28.77;12.90;;;11.40;61.10;;;;;;5012609;28;20195;-58
2021/04/28 08:50:23;;;;;;;23.23;14.10;;;11.50;60.80;;;;;;5025728;28;20427;-57
2021/04/28 08:52:51;;;;;;;34.43;14.83;;;11.70;61.00;;;;;;5021250;28;20469;-58
2021/04/28 08:55:17;;;;;;;25.27;15.00;;;12.00;59.70;;;;;;5025723;28;20208;-57
2021/04/28 08:57:43;;;;;;;27.13;13.90;;;12.30;60.20;;;;;;5030536;28;20722;-54
2021/04/28 09:00:09;;;;;;;24.83;14.20;;;12.50;57.90;;;;;;5026098;28;20587;-57
2021/04/28 09:02:35;;;;;;;26.67;14.10;;;12.70;56.30;;;;;;5023372;28;20183;-56
2021/04/28 09:05:14;;;;;;;25.40;13.37;;;12.80;56.10;;;;;;5025852;28;20767;-56
2021/04/28 09:07:44;;;;;;;20.63;12.97;;;12.90;55.90;;;;;;5019711;28;20293;-58
2021/04/28 09:10:13;;;;;;;21.47;13.63;;;12.90;55.70;;;;;;5028477;28;20406;-57
2021/04/28 09:12:40;;;;;;;22.63;13.43;;;12.90;56.50;;;;;;5026534;28;20450;-57
2021/04/28 09:15:10;;;;;;;25.47;13.07;;;12.90;56.10;;;;;;5022881;28;20431;-57
2021/04/28 09:17:52;;;;;;;28.53;13.87;;;12.80;55.80;;;;;;5016845;28;21141;-57
2021/04/28 09:20:26;;;;;;;24.63;13.83;;;12.80;55.50;;;;;;5027707;28;20913;-57
2021/04/28 09:23:15;;;;;;;22.60;13.73;;;12.80;55.90;;;;;;5024896;28;21181;-57
2021/04/28 09:25:50;;;;;;;24.27;13.30;;;12.90;55.70;;;;;;5007916;28;20489;-57
2021/04/28 09:28:30;;;;;;;32.53;13.00;;;13.00;56.70;;;;;;5007755;28;20430;-57
2021/04/28 09:31:11;;;;;;;28.23;13.77;;;13.20;57.60;;;;;;5026086;28;21198;-59
2021/04/28 09:33:55;;;;;;;22.27;13.23;;;13.40;58.20;;;;;;5012038;28;20512;-58
2021/04/28 09:36:36;;;;;;;24.47;13.93;;;13.60;57.40;;;;;;5018261;28;20434;-58
2021/04/28 09:39:08;;;;;;;24.50;14.30;;;13.80;56.90;;;;;;5020092;28;20472;-58
2021/04/28 09:41:36;;;;;;;23.53;13.67;;;14.00;57.00;;;;;;5028084;28;20383;-57
2021/04/28 09:44:20;;;;;;;26.73;13.90;;;14.20;56.10;;;;;;5021755;28;20451;-57
2021/04/28 09:47:01;;;;;;;19.80;11.83;;;14.40;55.70;;;;;;5025446;28;20452;-57
2021/04/28 09:49:42;;;;;;;22.87;12.60;;;14.70;54.20;;;;;;5033104;28;20433;-57
2021/04/28 09:52:09;;;;;;;20.60;11.40;;;15.00;53.00;;;;;;5015153;28;20473;-57
2021/04/28 09:54:34;;;;;;;19.27;11.20;;;15.30;52.40;;;;;;5019969;28;20474;-58
2021/04/28 09:57:00;;;;;;;23.23;12.50;;;15.60;52.20;;;;;;5020041;28;20534;-56
2021/04/28 09:59:51;;;;;;;23.40;11.40;;;15.90;51.30;;;;;;5021746;28;20179;-56
2021/04/28 10:02:30;;;;;;;19.80;10.37;;;16.00;50.40;;;;;;5019338;28;20168;-56
2021/04/28 10:05:26;;;;;;;20.57;10.30;;;16.20;50.30;;;;;;5022772;28;20985;-56
2021/04/28 10:08:06;;;;;;;16.10;10.93;;;16.30;49.30;;;;;;5015044;28;20561;-56
2021/04/28 10:10:32;;;;;;;19.93;12.23;;;16.30;49.00;;;;;;5022717;28;20422;-56
2021/04/28 10:12:57;;;;;;;19.37;12.70;;;16.30;47.70;;;;;;5023619;28;20524;-56
2021/04/28 10:15:23;;;;;;;19.10;11.27;;;16.20;47.80;;;;;;5025258;28;20195;-56
2021/04/28 10:17:50;;;;;;;21.23;11.37;;;16.20;48.70;;;;;;5019755;28;20195;-56
2021/04/28 10:20:16;;;;;;;16.50;10.80;;;16.20;48.20;;;;;;5022438;28;20172;-56
2021/04/28 10:22:43;;;;;;;26.93;12.73;;;16.10;47.90;;;;;;5023246;28;20488;-58
2021/04/28 10:25:12;;;;;;;19.87;12.13;;;16.00;47.60;;;;;;5031028;28;20415;-57
2021/04/28 10:27:39;;;;;;;22.60;10.40;;;16.00;47.70;;;;;;5022027;28;20855;-57
2021/04/28 10:30:06;;;;;;;21.83;11.80;;;16.00;47.70;;;;;;5021103;28;20812;-59
2021/04/28 10:32:34;;;;;;;20.33;11.80;;;16.20;47.70;;;;;;5032515;28;20519;-58
2021/04/28 10:35:08;;;;;;;18.07;11.60;;;16.40;47.90;;;;;;5021987;28;20434;-56
2021/04/28 10:37:36;;;;;;;25.77;12.20;;;16.60;47.00;;;;;;5019086;28;20538;-57
2021/04/28 10:40:09;;;;;;;20.83;10.90;;;16.80;46.50;;;;;;5022757;28;20497;-57
2021/04/28 10:42:36;;;;;;;18.37;11.63;;;16.90;46.60;;;;;;5043390;28;20461;-57
2021/04/28 10:45:04;;;;;;;20.47;11.67;;;17.10;46.90;;;;;;5027148;28;20526;-59
2021/04/28 10:47:45;;;;;;;22.10;12.77;;;17.40;45.50;;;;;;5028898;28;20447;-58
2021/04/28 10:50:28;;;;;;;22.90;12.33;;;17.80;46.00;;;;;;5026624;28;20491;-59
2021/04/28 10:53:03;;;;;;;20.20;11.53;;;18.20;45.20;;;;;;5026084;28;20454;-60
2021/04/28 10:55:39;;;;;;;19.97;11.67;;;18.20;43.50;;;;;;5030773;28;20430;-59
2021/04/28 10:58:27;;;;;;;23.67;12.30;;;18.00;43.20;;;;;;5036327;28;20446;-56
2021/04/28 11:03:28;;;;;;;33.50;13.47;;;18.00;43.40;;;;;;5029396;28;20421;-58
2021/04/28 11:05:55;;;;;;;26.37;12.17;;;18.20;44.20;;;;;;5031453;28;20434;-57
2021/04/28 11:08:29;;;;;;;26.83;11.80;;;18.50;43.90;;;;;;5034578;28;20826;-55
2021/04/28 11:10:55;;;;;;;18.57;11.50;;;18.80;43.80;;;;;;5025764;28;20440;-55
2021/04/28 11:13:21;;;;;;;21.30;11.90;;;19.10;43.20;;;;;;5028910;28;20453;-57
2021/04/28 11:15:52;;;;;;;21.40;11.97;;;19.40;42.80;;;;;;5033248;28;20176;-56
2021/04/28 11:18:33;;;;;;;28.77;14.90;;;19.50;41.90;;;;;;5033088;28;20206;-57
2021/04/28 11:21:17;;;;;;;22.50;12.73;;;19.70;42.00;;;;;;5031995;28;20509;-57
2021/04/28 11:24:05;;;;;;;19.20;11.60;;;19.80;41.20;;;;;;5029604;28;20967;-58
2021/04/28 11:26:31;;;;;;;22.53;11.90;;;19.90;40.30;;;;;;5024781;28;20553;-56
2021/04/28 11:28:57;;;;;;;23.03;12.50;;;19.90;40.70;;;;;;5027349;28;20784;-58
2021/04/28 11:31:38;;;;;;;27.20;12.83;;;20.00;39.80;;;;;;5028172;28;20513;-57
2021/04/28 11:34:26;;;;;;;25.40;13.67;;;20.00;39.70;;;;;;5029250;28;20458;-56
2021/04/28 11:36:58;;;;;;;18.20;11.67;;;20.20;40.10;;;;;;5022704;28;20458;-56
2021/04/28 11:39:40;;;;;;;21.17;11.50;;;20.30;39.90;;;;;;5024317;28;20430;-58
2021/04/28 11:42:20;;;;;;;16.90;11.00;;;20.50;38.60;;;;;;5023341;28;21062;-58
2021/04/28 11:44:55;;;;;;;18.50;10.80;;;20.60;38.30;;;;;;5012586;28;20953;-56
2021/04/28 11:47:25;;;;;;;21.80;10.90;;;20.70;36.60;;;;;;5021204;28;20454;-58
2021/04/28 11:49:53;;;;;;;18.27;11.70;;;20.80;35.10;;;;;;5011213;28;20508;-57
2021/04/28 11:52:21;;;;;;;21.17;10.60;;;20.90;35.00;;;;;;5028617;28;20435;-54
2021/04/28 11:54:55;;;;;;;17.83;10.00;;;20.90;34.00;;;;;;5026781;28;20453;-55
2021/04/28 11:57:31;;;;;;;19.33;9.70;;;20.90;33.00;;;;;;5025599;28;21023;-54
2021/04/28 12:00:07;;;;;;;21.83;10.47;;;20.80;33.00;;;;;;5029199;28;20791;-54
2021/04/28 12:02:34;;;;;;;21.03;10.90;;;20.90;32.30;;;;;;5030398;28;20438;-54
2021/04/28 12:05:00;;;;;;;17.53;9.57;;;20.90;33.30;;;;;;5030324;28;20430;-53
2021/04/28 12:07:26;;;;;;;17.70;10.03;;;21.10;34.10;;;;;;5033381;28;21033;-55
2021/04/28 12:09:52;;;;;;;16.77;9.70;;;21.30;33.80;;;;;;5029126;28;20179;-54
2021/04/28 12:12:24;;;;;;;17.33;10.43;;;21.50;32.20;;;;;;5031955;28;20171;-54
2021/04/28 12:15:08;;;;;;;19.13;11.23;;;21.50;33.50;;;;;;5032729;28;20437;-53
2021/04/28 12:17:47;;;;;;;14.90;10.30;;;21.70;34.40;;;;;;5035993;28;20462;-57
2021/04/28 12:20:22;;;;;;;22.90;12.27;;;21.90;34.10;;;;;;5026033;28;20484;-54
2021/04/28 12:22:48;;;;;;;17.50;11.27;;;22.10;33.90;;;;;;5024289;28;20487;-56
2021/04/28 12:25:18;;;;;;;18.07;11.47;;;22.20;33.70;;;;;;5021521;28;20601;-59
2021/04/28 12:27:46;;;;;;;20.10;11.77;;;22.20;32.50;;;;;;5021391;28;20454;-57
2021/04/28 12:30:14;;;;;;;19.63;10.57;;;22.20;31.50;;;;;;5025228;28;20422;-56
2021/04/28 12:32:49;;;;;;;26.03;11.00;;;22.10;32.80;;;;;;5022298;28;20531;-58
2021/04/28 12:35:20;;;;;;;22.17;10.77;;;22.20;32.90;;;;;;5019306;28;20436;-58
2021/04/28 12:38:16;;;;;;;32.17;10.63;;;22.40;34.00;;;;;;5020039;28;20458;-59
2021/04/28 12:40:49;;;;;;;15.47;9.50;;;22.60;32.50;;;;;;5021675;28;20785;-56
2021/04/28 12:43:20;;;;;;;18.33;10.47;;;22.80;32.80;;;;;;5024095;28;20438;-58
2021/04/28 12:45:46;;;;;;;15.07;9.87;;;22.80;31.00;;;;;;5023348;28;20438;-60
2021/04/28 12:48:20;;;;;;;15.27;8.33;;;22.70;31.10;;;;;;5022420;28;20469;-58